Time;durP1;ratioP1;P1;durP2;ratioP2;P2;SDS_P1;SDS_P2;PMS_P1;PMS_P2;Temp;Humidity;BMP_temperature;BMP_pressure;BME280_temperature;BME280_humidity;BME280_pressure;Samples;Min_cycle;Max_cycle;Signal;HPM_P1;HPM_P2
2023/02/10 00:02:05;;;;;;;;;46.50;38.25;;;;;0.97;80.94;102557.34;146605;566;46016;-75
2023/02/10 00:05:01;;;;;;;;;32.25;25.25;;;;;2.77;81.09;102884.66;146613;589;46021;-77
2023/02/10 00:08:01;;;;;;;;;50.50;40.00;;;;;2.74;81.07;102887.81;146608;611;46012;-77
2023/02/10 00:11:00;;;;;;;;;51.50;42.50;;;;;2.75;81.31;102884.50;146608;613;46010;-77
2023/02/10 00:14:01;;;;;;;;;40.75;32.00;;;;;2.72;81.01;102883.22;146604;581;46014;-76
2023/02/10 00:17:10;;;;;;;;;43.00;33.25;;;;;2.66;81.30;102883.41;146612;615;46020;-76
2023/02/10 00:20:07;;;;;;;;;38.50;33.25;;;;;2.60;80.78;102877.56;146610;601;46016;-76
2023/02/10 00:23:17;;;;;;;;;31.00;25.50;;;;;2.62;80.98;102878.69;146615;636;46020;-80
2023/02/10 00:26:27;;;;;;;;;43.50;35.75;;;;;2.61;81.99;102871.72;146608;603;46016;-80
2023/02/10 00:29:36;;;;;;;;;50.00;39.00;;;;;0.96;81.48;102579.41;146615;563;46010;-81
2023/02/10 00:32:40;;;;;;;;;47.75;36.75;;;;;2.62;82.23;102876.12;146611;643;46012;-80
2023/02/10 00:35:43;;;;;;;;;53.00;41.25;;;;;2.66;82.10;102885.97;146608;564;47011;-80
2023/02/10 00:38:52;;;;;;;;;47.00;39.25;;;;;1.79;81.55;102711.91;146607;604;46012;-80
2023/02/10 00:41:53;;;;;;;;;53.00;38.25;;;;;2.68;82.04;102879.41;146603;630;46021;-80
2023/02/10 00:44:50;;;;;;;;;51.75;38.75;;;;;2.63;81.57;102877.03;146605;574;46016;-80
2023/02/10 00:47:59;;;;;;;;;48.50;38.25;;;;;2.64;81.77;102866.03;146612;565;47012;-77
2023/02/10 00:51:09;;;;;;;;;52.75;40.75;;;;;1.65;81.14;102688.88;146606;625;46016;-75
2023/02/10 00:54:16;;;;;;;;;51.75;40.50;;;;;2.72;81.47;102867.84;146600;596;47010;-78
2023/02/10 00:57:15;;;;;;;;;50.50;39.50;;;;;2.77;81.69;102870.22;146606;578;46913;-73
2023/02/10 01:00:25;;;;;;;;;51.75;39.00;;;;;1.71;81.82;102682.84;146611;749;46010;-75
2023/02/10 01:03:45;;;;;;;;;41.75;35.50;;;;;2.67;81.63;102867.31;146606;587;46913;-76
2023/02/10 01:06:45;;;;;;;;;40.00;33.50;;;;;2.62;81.49;102858.19;146608;563;46010;-76
2023/02/10 01:09:53;;;;;;;;;39.75;36.25;;;;;2.62;81.32;102867.53;146606;590;46016;-77
2023/02/10 01:13:03;;;;;;;;;;;;;;;;;;;;;
2023/02/10 01:15:56;;;;;;;;;52.00;39.50;;;;;2.64;81.41;102855.78;146606;658;46016;-76
2023/02/10 01:18:58;;;;;;;;;56.25;42.00;;;;;2.67;81.17;102840.78;146607;606;46011;-78
2023/02/10 01:22:05;;;;;;;;;34.25;30.25;;;;;2.73;81.30;102839.84;146605;606;46912;-87
2023/02/10 01:25:07;;;;;;;;;55.75;44.00;;;;;2.79;82.29;102860.13;146607;609;46020;-78
2023/02/10 01:28:08;;;;;;;;;35.00;32.25;;;;;2.74;81.69;102849.38;146605;566;46016;-77
2023/02/10 01:31:34;;;;;;;;;48.25;37.75;;;;;2.71;81.10;102841.34;146607;745;47012;-79
2023/02/10 01:34:52;;;;;;;;;;;;;;;;;;;;;
2023/02/10 01:37:49;;;;;;;;;43.00;34.00;;;;;2.61;83.62;102858.91;146608;605;46010;-79
2023/02/10 01:40:45;;;;;;;;;32.50;30.25;;;;;2.51;81.72;102846.66;146610;565;46013;-78
2023/02/10 01:43:57;;;;;;;;;42.25;33.75;;;;;2.50;81.73;102837.16;146607;576;46021;-79
2023/02/10 01:47:00;;;;;;;;;51.25;38.50;;;;;2.57;82.22;102851.59;146608;687;46016;-79
2023/02/10 01:50:03;;;;;;;;;47.25;37.25;;;;;2.54;81.75;102841.91;146613;628;46021;-77
2023/02/10 01:53:10;;;;;;;;;39.00;31.75;;;;;2.62;81.33;102840.25;146610;594;46012;-78
2023/02/10 01:56:30;;;;;;;;;53.50;40.50;;;;;1.59;81.40;102659.31;146615;569;46021;-79
2023/02/10 01:59:33;;;;;;;;;57.25;41.75;;;;;2.67;82.29;102846.81;146609;582;47012;-78
2023/02/10 02:02:35;;;;;;;;;49.50;38.25;;;;;2.72;81.33;102837.13;146614;605;47012;-81
2023/02/10 02:05:50;;;;;;;;;51.50;38.25;;;;;2.75;81.23;102846.06;146610;737;46034;-75
2023/02/10 02:09:10;;;;;;;;;54.75;43.00;;;;;2.75;82.24;102848.62;146614;650;46010;-75
2023/02/10 02:12:48;;;;;;;;;37.50;28.00;;;;;1.74;81.20;102662.75;146609;602;46017;-75
2023/02/10 02:16:23;;;;;;;;;42.25;31.00;;;;;0.81;81.25;102494.25;146610;597;46020;-73
2023/02/10 02:24:09;;;;;;;;;38.25;31.25;;;;;1.00;82.52;102550.97;146612;569;46010;-73
2023/02/10 02:28:13;;;;;;;;;38.50;32.25;;;;;1.79;81.21;102710.25;146609;637;46017;-74
2023/02/10 02:31:44;;;;;;;;;37.25;30.00;;;;;2.60;82.55;102830.56;146612;577;46020;-79
2023/02/10 02:35:25;;;;;;;;;37.00;31.25;;;;;2.66;81.51;102844.09;146611;584;46035;-77
2023/02/10 02:38:48;;;;;;;;;50.00;39.25;;;;;1.75;81.96;102679.03;146614;603;46010;-79
2023/02/10 02:42:38;;;;;;;;;61.75;47.25;;;;;1.29;81.04;102614.81;146616;564;46014;-79
2023/02/10 02:46:11;;;;;;;;;51.50;37.00;;;;;2.67;82.32;102854.50;146617;590;46010;-78
2023/02/10 02:49:58;;;;;;;;;44.50;35.50;;;;;2.60;82.43;102844.28;146617;611;46016;-76
2023/02/10 02:53:26;;;;;;;;;40.00;31.25;;;;;2.57;81.72;102853.25;146613;584;46010;-79
2023/02/10 02:57:04;;;;;;;;;45.50;36.50;;;;;2.57;81.42;102845.56;146617;582;46012;-77
2023/02/10 03:00:40;;;;;;;;;45.75;36.75;;;;;0.76;80.63;102512.28;146616;610;47010;-76
2023/02/10 03:03:41;;;;;;;;;48.25;38.50;;;;;2.64;82.05;102842.97;146613;612;46017;-76
2023/02/10 03:07:02;;;;;;;;;36.50;31.50;;;;;2.67;81.74;102851.94;146619;631;46020;-76
2023/02/10 03:10:08;;;;;;;;;31.50;25.50;;;;;2.69;81.68;102852.12;146614;644;46016;-80
2023/02/10 03:13:10;;;;;;;;;41.50;34.50;;;;;2.72;81.63;102855.97;146616;661;47010;-79
2023/02/10 03:16:12;;;;;;;;;51.25;36.25;;;;;2.71;81.72;102858.31;146616;598;46016;-77
2023/02/10 03:19:32;;;;;;;;;;;;;;;;;;;;;
2023/02/10 03:22:38;;;;;;;;;38.50;34.25;;;;;2.71;81.90;102855.75;146616;563;46020;-84
2023/02/10 03:25:34;;;;;;;;;40.25;34.75;;;;;2.73;81.28;102847.53;146612;564;46021;-86
2023/02/10 03:28:34;;;;;;;;;36.50;28.50;;;;;2.75;81.87;102842.59;146615;593;46014;-84
2023/02/10 03:31:40;;;;;;;;;38.75;32.00;;;;;2.73;81.45;102850.09;146618;584;46020;-79
2023/02/10 03:34:42;;;;;;;;;40.75;33.00;;;;;2.73;82.14;102847.53;146616;598;46012;-79
2023/02/10 03:38:11;;;;;;;;;;;;;;;;;;;;;
2023/02/10 03:41:26;;;;;;;;;28.00;22.75;;;;;2.69;81.78;102860.72;146605;589;46037;-78
2023/02/10 03:44:43;;;;;;;;;36.25;29.75;;;;;2.68;81.26;102855.41;146611;636;46020;-83
2023/02/10 03:47:47;;;;;;;;;31.75;26.50;;;;;2.73;81.57;102859.44;146605;572;47012;-81
2023/02/10 03:50:46;;;;;;;;;32.50;24.75;;;;;2.76;81.76;102847.88;146612;585;46010;-79
2023/02/10 03:53:48;;;;;;;;;30.00;27.00;;;;;2.81;81.31;102848.44;146607;637;46016;-82
2023/02/10 03:56:54;;;;;;;;;31.00;22.50;;;;;2.84;81.74;102856.47;146603;582;46021;-81
2023/02/10 04:00:27;;;;;;;;;30.75;26.25;;;;;2.79;81.61;102847.34;146606;585;46012;-77
2023/02/10 04:03:34;;;;;;;;;;;;;;;;;;;;;
2023/02/10 04:06:35;;;;;;;;;28.00;23.50;;;;;2.75;81.87;102863.09;146606;579;46016;-77
2023/02/10 04:09:28;;;;;;;;;32.25;22.50;;;;;1.36;80.94;102630.13;146607;576;47010;-78
2023/02/10 04:12:33;;;;;;;;;28.50;23.25;;;;;2.71;81.25;102849.00;146604;590;46016;-78
2023/02/10 04:15:37;;;;;;;;;31.00;24.75;;;;;2.72;80.77;102848.28;146610;626;46010;-79
2023/02/10 04:18:40;;;;;;;;;;;;;;;;;;;;;
2023/02/10 04:21:37;;;;;;;;;42.75;34.00;;;;;2.71;81.76;102851.59;146606;580;47010;-80
2023/02/10 04:24:53;;;;;;;;;39.75;27.00;;;;;2.70;80.98;102856.50;146602;589;47013;-79
2023/02/10 04:28:08;;;;;;;;;31.25;25.25;;;;;2.71;80.69;102851.59;146600;628;47010;-79
2023/02/10 04:31:14;;;;;;;;;30.75;26.50;;;;;1.77;80.49;102670.78;146603;570;47012;-78
2023/02/10 04:34:16;;;;;;;;;28.50;24.00;;;;;2.85;80.58;102849.69;146609;626;47010;-81
2023/02/10 04:37:13;;;;;;;;;37.50;31.00;;;;;2.87;80.78;102849.16;146605;609;47012;-80
2023/02/10 04:40:16;;;;;;;;;31.50;25.25;;;;;1.50;79.86;102611.31;146612;628;46010;-83
2023/02/10 04:43:19;;;;;;;;;32.50;26.25;;;;;2.84;80.15;102856.47;146609;609;47913;-82
2023/02/10 04:46:49;;;;;;;;;38.00;30.50;;;;;1.83;79.41;102676.63;146614;569;46021;-79
2023/02/10 04:49:47;;;;;;;;;34.75;28.25;;;;;2.85;79.92;102855.72;146610;573;46016;-78
2023/02/10 04:52:54;;;;;;;;;36.50;27.50;;;;;2.91;81.05;102859.00;146612;566;46020;-79
2023/02/10 04:55:59;;;;;;;;;29.25;22.50;;;;;2.86;80.66;102859.19;146610;594;47014;-76
2023/02/10 04:59:10;;;;;;;;;35.25;28.25;;;;;2.81;80.04;102863.81;146608;588;46020;-72
2023/02/10 05:02:17;;;;;;;;;34.25;28.75;;;;;2.84;80.23;102873.50;146608;623;46017;-72
2023/02/10 05:05:18;;;;;;;;;32.75;24.25;;;;;2.85;80.22;102873.66;146613;580;46020;-73
2023/02/10 05:08:16;;;;;;;;;29.00;24.25;;;;;2.83;80.31;102872.56;146611;599;47013;-73
2023/02/10 05:11:28;;;;;;;;;34.50;26.50;;;;;2.82;80.01;102875.88;146615;720;46010;-73
2023/02/10 05:14:29;;;;;;;;;32.75;23.50;;;;;2.84;79.88;102876.06;146607;563;46016;-72
2023/02/10 05:17:21;;;;;;;;;45.75;39.75;;;;;2.83;81.46;102882.81;146610;570;46021;-79
2023/02/10 05:20:47;;;;;;;;;51.00;40.75;;;;;2.78;80.91;102883.94;146607;571;46016;-75
2023/02/10 05:24:03;;;;;;;;;44.50;34.50;;;;;2.75;80.21;102887.06;146616;714;46012;-76
2023/02/10 05:27:04;;;;;;;;;32.00;22.00;;;;;2.75;81.00;102894.75;146609;569;46915;-74
2023/02/10 05:30:15;;;;;;;;;46.00;37.50;;;;;2.69;81.86;102891.47;146609;575;46010;-75
2023/02/10 05:33:14;;;;;;;;;42.00;35.00;;;;;2.63;81.35;102902.62;146608;627;46016;-75
2023/02/10 05:36:25;;;;;;;;;31.50;26.25;;;;;2.60;82.47;102908.31;146613;617;46010;-77
2023/02/10 05:39:28;;;;;;;;;31.50;23.25;;;;;2.54;82.12;102911.06;146608;659;47013;-75
2023/02/10 05:42:29;;;;;;;;;28.00;19.75;;;;;2.52;81.63;102909.97;146613;589;46020;-76
2023/02/10 05:45:33;;;;;;;;;34.75;27.50;;;;;2.54;83.91;102902.47;146610;587;46016;-75
2023/02/10 05:48:28;;;;;;;;;41.00;30.00;;;;;2.52;82.83;102884.37;146614;583;46020;-74
2023/02/10 05:51:25;;;;;;;;;38.25;33.00;;;;;2.60;82.44;102897.16;146606;595;47012;-77
2023/02/10 05:54:28;;;;;;;;;26.00;20.50;;;;;2.62;83.06;102904.28;146612;610;46011;-81
2023/02/10 05:57:30;;;;;;;;;26.75;24.25;;;;;2.60;82.87;102902.28;146611;620;46915;-81
2023/02/10 06:00:25;;;;;;;;;31.75;25.50;;;;;2.66;82.32;102905.56;146607;601;46010;-80
2023/02/10 06:03:33;;;;;;;;;26.75;24.25;;;;;2.68;83.19;102919.44;146610;618;46030;-81
2023/02/10 06:06:28;;;;;;;;;24.75;22.75;;;;;2.66;83.03;102908.13;146610;595;46020;-80
2023/02/10 06:09:40;;;;;;;;;26.25;22.50;;;;;2.63;82.75;102898.44;146611;569;46016;-80
2023/02/10 06:12:47;;;;;;;;;29.00;24.00;;;;;2.70;81.60;102894.94;146614;569;46010;-79
2023/02/10 06:16:11;;;;;;;;;28.50;23.00;;;;;1.67;82.17;102702.78;146607;619;46017;-79
2023/02/10 06:19:11;;;;;;;;;26.25;22.50;;;;;2.76;82.31;102904.25;146614;565;46020;-79
2023/02/10 06:22:15;;;;;;;;;19.00;16.75;;;;;2.74;82.01;102897.09;146610;577;46017;-80
2023/02/10 06:25:35;;;;;;;;;20.25;17.00;;;;;2.76;82.06;102891.44;146614;578;46020;-79
2023/02/10 06:28:55;;;;;;;;;33.50;28.50;;;;;1.82;83.08;102736.19;146612;636;46012;-80
2023/02/10 06:32:04;;;;;;;;;25.25;18.50;;;;;2.72;82.03;102902.06;146607;569;46020;-76
2023/02/10 06:35:01;;;;;;;;;25.00;21.50;;;;;2.73;82.35;102896.19;146610;602;46016;-78
2023/02/10 06:37:53;;;;;;;;;24.25;21.00;;;;;2.80;82.72;102895.25;146614;610;46021;-78
2023/02/10 06:40:48;;;;;;;;;32.25;30.75;;;;;2.86;83.13;102902.75;146606;579;46913;-80
2023/02/10 06:43:47;;;;;;;;;43.75;36.50;;;;;2.83;82.46;102890.50;146611;551;46021;-74
2023/02/10 06:46:39;;;;;;;;;34.50;32.25;;;;;2.92;82.23;102893.22;146605;646;46012;-73
2023/02/10 06:49:31;;;;;;;;;38.25;32.50;;;;;2.94;82.81;102889.19;146610;590;46020;-74
2023/02/10 06:52:34;;;;;;;;;;;;;;;;;;;;;
2023/02/10 06:55:44;;;;;;;;;60.25;48.75;;;;;2.99;82.22;102900.87;146610;580;46020;-74
2023/02/10 06:58:45;;;;;;;;;46.50;39.50;;;;;3.04;82.29;102897.22;146605;614;46015;-74
2023/02/10 07:01:49;;;;;;;;;48.50;40.50;;;;;3.08;83.07;102896.81;146603;625;46020;-73
2023/02/10 07:05:02;;;;;;;;;49.75;38.50;;;;;3.11;82.44;102884.34;146603;564;47012;-77
2023/02/10 07:08:04;;;;;;;;;50.25;41.75;;;;;3.16;82.64;102882.34;146610;590;47012;-77
2023/02/10 07:11:05;;;;;;;;;58.75;45.50;;;;;3.22;82.29;102886.53;146607;581;46016;-77
2023/02/10 07:14:18;;;;;;;;;68.00;51.00;;;;;3.22;83.17;102899.34;146610;759;46021;-77
2023/02/10 07:17:16;;;;;;;;;56.00;42.50;;;;;3.20;82.31;102903.38;146604;630;47014;-76
2023/02/10 07:20:24;;;;;;;;;;;;;;;;;;;;;
2023/02/10 07:23:33;;;;;;;;;69.25;53.75;;;;;3.22;82.01;102907.03;146607;661;46016;-74
2023/02/10 07:26:51;;;;;;;;;68.00;52.00;;;;;3.23;81.14;102907.94;146607;607;47010;-75
2023/02/10 07:29:50;;;;;;;;;77.33;59.33;;;;;3.31;82.21;102912.31;146606;564;46017;-77
2023/02/10 07:33:03;;;;;;;;;68.25;52.00;;;;;3.33;82.41;102918.50;146606;574;46020;-77
2023/02/10 07:36:07;;;;;;;;;66.75;51.00;;;;;3.30;82.93;102915.59;146606;579;46017;-74
2023/02/10 07:39:25;;;;;;;;;69.75;51.00;;;;;2.19;81.49;102729.38;146614;664;46010;-76
2023/02/10 07:42:18;;;;;;;;;55.25;43.00;;;;;3.25;83.83;102921.87;146616;617;46014;-76
2023/02/10 07:45:30;;;;;;;;;58.75;41.00;;;;;3.18;84.39;102930.50;146620;613;46010;-77
2023/02/10 07:48:47;;;;;;;;;44.00;36.00;;;;;3.14;83.94;102935.97;146616;713;46016;-79
2023/02/10 07:52:04;;;;;;;;;;;;;;;;;;;;;
2023/02/10 07:55:16;;;;;;;;;52.00;38.75;;;;;3.24;83.69;102936.34;146616;582;46014;-79
2023/02/10 07:58:27;;;;;;;;;43.50;35.50;;;;;3.26;84.48;102938.16;146619;658;46010;-78
2023/02/10 08:01:41;;;;;;;;;;;;;;;;;;;;;
2023/02/10 08:04:46;;;;;;;;;55.50;42.00;;;;;3.26;83.81;102915.06;146610;642;47010;-80
2023/02/10 08:07:56;;;;;;;;;58.25;45.00;;;;;3.37;83.47;102917.25;146616;634;46012;-79
2023/02/10 08:10:55;;;;;;;;;70.25;54.00;;;;;3.46;83.98;102916.62;146618;782;46020;-79
2023/02/10 08:13:50;;;;;;;;;66.25;50.25;;;;;3.53;83.45;102914.78;146616;685;46913;-80
2023/02/10 08:16:48;;;;;;;;;55.50;41.75;;;;;3.61;83.22;102919.09;146618;570;46020;-80
2023/02/10 08:19:50;;;;;;;;;64.75;49.50;;;;;3.67;83.53;102912.13;146612;619;46016;-78
2023/02/10 08:22:59;;;;;;;;;63.75;49.00;;;;;3.72;83.12;102917.78;146619;573;46014;-80
2023/02/10 08:26:19;;;;;;;;;65.00;51.00;;;;;3.81;83.21;102921.41;146617;630;46012;-79
2023/02/10 08:29:37;;;;;;;;;68.00;50.50;;;;;3.88;82.57;102929.03;146620;629;46010;-79
2023/02/10 08:32:41;;;;;;;;;67.25;50.00;;;;;3.95;82.93;102928.97;146615;772;46014;-79
2023/02/10 08:35:50;;;;;;;;;73.25;57.50;;;;;4.03;82.64;102928.19;146611;608;46020;-79
2023/02/10 08:38:58;;;;;;;;;72.50;56.00;;;;;4.12;82.61;102924.09;146614;588;46016;-79
2023/02/10 08:42:11;;;;;;;;;76.00;58.00;;;;;4.23;82.97;102908.97;146616;621;46020;-80
2023/02/10 08:45:28;;;;;;;;;76.33;58.33;;;;;3.38;82.56;102754.94;146616;677;46016;-80
2023/02/10 08:48:24;;;;;;;;;83.67;68.67;;;;;4.34;82.83;102922.28;146620;617;46020;-78
2023/02/10 08:51:38;;;;;;;;;101.00;78.67;;;;;4.36;81.89;102928.50;146624;638;47013;-82
2023/02/10 08:54:37;;;;;;;;;79.00;59.00;;;;;4.38;82.45;102933.78;146625;597;46010;-81
2023/02/10 08:57:49;;;;;;;;;73.33;57.00;;;;;4.39;81.99;102925.34;146616;669;46022;-79
2023/02/10 09:01:02;;;;;;;;;75.50;55.25;;;;;4.46;82.09;102924.38;146620;619;46010;-80
2023/02/10 09:04:02;;;;;;;;;74.50;55.25;;;;;4.52;82.26;102923.41;146616;574;46913;-79
2023/02/10 09:07:29;;;;;;;;;72.00;53.00;;;;;4.57;82.14;102927.38;146611;580;46021;-79
2023/02/10 09:10:29;;;;;;;;;78.67;61.00;;;;;4.62;82.11;102909.91;146617;570;46016;-81
2023/02/10 09:13:35;;;;;;;;;77.00;62.33;;;;;4.12;82.30;102798.28;146619;570;46012;-80
2023/02/10 09:16:34;;;;;;;;;83.00;68.33;;;;;4.76;82.48;102908.84;146618;561;46016;-79
2023/02/10 09:19:43;;;;;;;;;81.67;67.33;;;;;3.87;82.23;102740.78;146624;594;46020;-80
2023/02/10 09:22:47;;;;;;;;;80.00;60.67;;;;;4.78;81.97;102898.00;146621;620;46014;-79
2023/02/10 09:26:00;;;;;;;;;73.67;55.67;;;;;3.73;81.70;102714.34;146626;569;46012;-79
2023/02/10 09:29:04;;;;;;;;;89.33;77.67;;;;;4.79;81.48;102919.47;146620;622;46913;-80
2023/02/10 09:32:12;;;;;;;;;93.00;82.67;;;;;4.71;80.75;102910.00;146627;638;46020;-79
2023/02/10 09:35:22;;;;;;;;;98.00;85.33;;;;;3.58;80.29;102723.81;146624;593;46017;-80
2023/02/10 09:38:30;;;;;;;;;106.00;96.00;;;;;4.60;82.11;102913.97;146623;597;46020;-79
2023/02/10 09:42:11;;;;;;;;;91.67;80.67;;;;;4.52;81.14;102895.16;146618;587;46014;-79
2023/02/10 09:45:41;;;;;;;;;;;;;;;;;;;;;
2023/02/10 09:49:30;;;;;;;;;116.50;103.75;;;;;3.48;81.33;102725.34;146618;581;46016;-79
2023/02/10 09:53:07;;;;;;;;;72.00;56.67;;;;;4.33;83.27;102902.47;146617;583;46010;-79
2023/02/10 09:56:09;;;;;;;;;68.00;52.00;;;;;4.18;85.12;102894.72;146700;566;46022;-79
2023/02/10 09:59:12;;;;;;;;;70.75;55.50;;;;;4.12;84.27;102898.44;146611;587;46018;-80
2023/02/10 10:02:39;;;;;;;;;49.50;42.75;;;;;4.13;84.35;102914.75;146614;586;46010;-79
2023/02/10 10:06:06;;;;;;;;;58.50;45.25;;;;;4.11;85.78;102905.94;146609;576;46915;-79
2023/02/10 10:10:01;;;;;;;;;53.25;42.00;;;;;4.03;85.01;102899.97;146614;656;46021;-78
2023/02/10 10:13:02;;;;;;;;;52.75;42.00;;;;;4.13;84.85;102883.94;146611;611;46018;-78
2023/02/10 10:16:22;;;;;;;;;36.75;32.50;;;;;4.28;84.51;102890.78;146612;602;46011;-78
2023/02/10 10:20:21;;;;;;;;;42.00;35.50;;;;;4.38;85.15;102873.06;146614;690;46012;-79
2023/02/10 10:24:05;;;;;;;;;50.50;38.75;;;;;4.40;83.76;102871.59;146612;594;46020;-78
2023/02/10 10:27:51;;;;;;;;;43.25;34.75;;;;;4.23;83.10;102827.69;146609;580;46016;-79
2023/02/10 10:31:19;;;;;;;;;36.00;31.00;;;;;4.72;82.91;102878.41;146613;586;46021;-79
2023/02/10 10:34:58;;;;;;;;;34.00;30.25;;;;;4.82;83.53;102874.44;146610;629;46016;-79
2023/02/10 10:38:10;;;;;;;;;59.50;43.25;;;;;4.88;82.79;102858.75;146613;619;46021;-79
2023/02/10 10:41:28;;;;;;;;;51.00;38.75;;;;;4.95;83.00;102858.66;146609;635;46016;-79
2023/02/10 10:45:12;;;;;;;;;59.00;45.50;;;;;4.75;82.61;102796.50;146611;569;46022;-76
2023/02/10 10:48:34;;;;;;;;;36.75;33.75;;;;;4.95;81.27;102829.47;146611;564;46016;-77
2023/02/10 10:51:53;;;;;;;;;43.50;36.50;;;;;4.78;80.96;102801.97;146614;569;46020;-76
2023/02/10 10:55:02;;;;;;;;;;;;;;;;;;;;;
2023/02/10 10:58:57;;;;;;;;;54.50;41.75;;;;;5.21;81.40;102851.19;146618;565;47020;-77
2023/02/10 11:02:00;;;;;;;;;51.25;39.00;;;;;5.34;81.73;102819.97;146613;604;46016;-77
2023/02/10 11:05:39;;;;;;;;;;;;;;;;;;;;;
2023/02/10 11:08:56;;;;;;;;;82.33;63.33;;;;;5.64;81.40;102813.63;146616;656;46017;-76
2023/02/10 11:12:46;;;;;;;;;68.00;52.00;;;;;4.47;80.23;102598.28;146620;576;46020;-76
2023/02/10 11:15:52;;;;;;;;;81.00;65.33;;;;;5.73;80.06;102809.44;146618;627;46014;-76
2023/02/10 11:19:42;;;;;;;;;71.25;55.00;;;;;3.62;78.74;102448.94;146622;618;46022;-76
2023/02/10 11:23:26;;;;;;;;;64.00;49.50;;;;;4.03;78.43;102525.19;146612;579;46017;-77
2023/02/10 11:26:46;;;;;;;;;;;;;;;;;;;;;
2023/02/10 11:29:58;;;;;;;;;72.25;55.75;;;;;5.65;80.13;102795.78;146616;566;46012;-74
2023/02/10 11:33:02;;;;;;;;;82.33;66.67;;;;;5.72;80.77;102797.31;146622;607;46010;-75
2023/02/10 11:36:38;;;;;;;;;72.00;56.00;;;;;5.73;80.12;102799.13;146618;616;46012;-76
2023/02/10 11:39:59;;;;;;;;;61.25;48.00;;;;;4.23;79.72;102527.28;146616;564;46012;-73
2023/02/10 11:43:10;;;;;;;;;70.25;50.50;;;;;5.86;80.34;102785.91;146617;573;46012;-77
2023/02/10 11:46:44;;;;;;;;;73.75;56.25;;;;;4.94;80.35;102602.34;146618;557;46021;-77
2023/02/10 11:49:51;;;;;;;;;76.00;58.50;;;;;6.05;80.65;102781.00;146614;618;46016;-80
2023/02/10 11:52:49;;;;;;;;;83.00;70.67;;;;;6.10;80.81;102779.78;146624;596;46010;-73
2023/02/10 11:56:10;;;;;;;;;69.00;56.67;;;;;6.13;82.75;102782.69;146705;569;45023;-76
2023/02/10 11:59:43;;;;;;;;;77.00;60.00;;;;;6.14;81.05;102779.37;146616;609;46016;-74
2023/02/10 12:03:39;;;;;;;;;70.00;54.00;;;;;5.12;79.76;102594.72;146623;664;46021;-73
2023/02/10 12:07:01;;;;;;;;;67.75;51.50;;;;;6.11;79.28;102779.06;146622;573;45014;-75
2023/02/10 12:11:09;;;;;;;;;61.75;48.50;;;;;6.10;79.40;102777.22;146623;660;46021;-76
2023/02/10 12:14:46;;;;;;;;;52.75;41.00;;;;;6.08;79.48;102771.00;146614;605;48914;-75
2023/02/10 12:18:36;;;;;;;;;66.50;52.50;;;;;6.07;79.95;102771.75;146624;621;46010;-75
2023/02/10 12:22:16;;;;;;;;;62.75;48.75;;;;;5.63;79.52;102704.63;146618;614;46016;-78
2023/02/10 12:25:47;;;;;;;;;49.75;41.50;;;;;5.59;79.65;102719.59;146624;703;46010;-74
2023/02/10 12:29:33;;;;;;;;;26.25;24.00;;;;;5.67;80.06;102765.03;146620;776;46016;-76
2023/02/10 12:33:44;;;;;;;;;33.50;28.50;;;;;5.49;79.41;102756.34;146623;629;46021;-75
2023/02/10 12:37:27;;;;;;;;;50.75;40.75;;;;;5.54;80.66;102768.94;146621;565;46014;-75
2023/02/10 12:41:02;;;;;;;;;64.50;51.00;;;;;5.59;81.49;102771.97;146623;577;46020;-76
2023/02/10 12:44:59;;;;;;;;;43.75;35.50;;;;;5.42;81.23;102735.84;146619;563;45018;-74
2023/02/10 12:48:47;;;;;;;;;;;;;;;;;;;;;
2023/02/10 12:52:19;;;;;;;;;47.50;36.25;;;;;4.77;80.38;102620.28;146621;618;46016;-75
2023/02/10 12:55:44;;;;;;;;;51.75;41.00;;;;;5.55;80.78;102760.47;146623;592;46021;-75
2023/02/10 12:58:53;;;;;;;;;53.00;41.25;;;;;5.63;80.53;102760.34;146616;592;46016;-74
2023/02/10 13:02:07;;;;;;;;;46.25;36.50;;;;;5.65;80.88;102746.88;146625;658;46010;-75
2023/02/10 13:05:21;;;;;;;;;54.00;43.25;;;;;5.70;80.68;102757.62;146618;667;46016;-75
2023/02/10 13:09:20;;;;;;;;;51.00;38.75;;;;;5.71;79.99;102760.38;146625;588;45020;-74
2023/02/10 13:12:36;;;;;;;;;36.50;33.25;;;;;5.76;79.90;102761.78;146622;609;46012;-75
2023/02/10 13:16:13;;;;;;;;;35.00;32.75;;;;;5.65;79.87;102749.47;146625;566;46011;-75
2023/02/10 13:19:53;;;;;;;;;39.75;34.25;;;;;5.77;79.64;102761.03;146618;632;46016;-75
2023/02/10 13:23:07;;;;;;;;;48.00;37.25;;;;;5.74;79.00;102760.69;146624;580;46010;-75
2023/02/10 13:26:48;;;;;;;;;25.75;19.25;;;;;5.70;78.38;102768.87;146620;565;46017;-75
2023/02/10 13:30:31;;;;;;;;;21.50;17.50;;;;;5.40;78.68;102724.53;146625;564;46012;-74
2023/02/10 13:34:23;;;;;;;;;19.00;15.25;;;;;5.55;79.12;102757.00;146619;570;45034;-74
2023/02/10 13:37:51;;;;;;;;;19.75;14.25;;;;;5.47;80.25;102758.75;146624;648;46010;-75
2023/02/10 13:41:42;;;;;;;;;21.50;20.00;;;;;5.36;79.63;102758.37;146616;570;46019;-74
2023/02/10 13:45:29;;;;;;;;;23.50;18.50;;;;;5.41;79.97;102772.63;146623;623;46020;-76
2023/02/10 13:49:11;;;;;;;;;;;;;;;;;;;;;
2023/02/10 13:52:29;;;;;;;;;45.50;37.50;;;;;5.45;80.81;102783.44;146626;641;46010;-74
2023/02/10 13:56:11;;;;;;;;;55.00;43.00;;;;;5.19;80.53;102728.31;146621;600;46016;-77
2023/02/10 13:59:44;;;;;;;;;52.00;42.25;;;;;5.45;80.46;102777.34;146624;649;46010;-73
2023/02/10 14:02:43;;;;;;;;;56.25;45.00;;;;;5.45;81.07;102773.13;146621;575;46014;-76
2023/02/10 14:06:13;;;;;;;;;69.50;52.50;;;;;4.19;80.66;102552.47;146625;619;46010;-74
2023/02/10 14:09:39;;;;;;;;;67.25;53.75;;;;;5.02;80.85;102706.91;146620;713;46013;-74
2023/02/10 14:12:56;;;;;;;;;61.00;46.50;;;;;5.46;80.79;102792.97;146620;601;47010;-74
2023/02/10 14:16:43;;;;;;;;;;;;;;;;;;;;;
2023/02/10 14:19:44;;;;;;;;;83.33;66.00;;;;;5.42;80.71;102793.41;146624;572;46011;-73
2023/02/10 14:23:16;;;;;;;;;83.00;74.67;;;;;5.35;80.18;102793.47;146623;738;47015;-73
2023/02/10 14:27:09;;;;;;;;;;;;;;;;;;;;;
2023/02/10 14:30:51;;;;;;;;;64.50;49.00;;;;;5.21;80.19;102798.84;146622;730;46012;-73
2023/02/10 14:34:02;;;;;;;;;63.75;50.00;;;;;5.07;80.81;102782.84;146626;639;46010;-73
2023/02/10 14:37:07;;;;;;;;;72.50;55.00;;;;;5.14;81.43;102804.06;146620;618;46012;-73
2023/02/10 14:40:20;;;;;;;;;67.00;52.50;;;;;5.13;81.34;102802.25;146626;572;46010;-75
2023/02/10 14:43:39;;;;;;;;;65.75;50.00;;;;;5.12;81.58;102803.03;146618;565;45016;-73
2023/02/10 14:46:38;;;;;;;;;59.75;45.75;;;;;5.08;81.80;102802.69;146623;606;46010;-75
2023/02/10 14:49:39;;;;;;;;;61.25;48.00;;;;;5.02;81.66;102812.31;146618;676;47014;-74
2023/02/10 14:52:52;;;;;;;;;67.50;52.00;;;;;4.95;81.87;102811.50;146626;672;46011;-75
2023/02/10 14:56:03;;;;;;;;;66.75;52.25;;;;;3.34;80.67;102542.53;146615;588;46016;-73
2023/02/10 14:58:56;;;;;;;;;65.75;52.25;;;;;4.86;81.96;102822.63;146623;572;46010;-73
2023/02/10 15:02:02;;;;;;;;;72.00;55.25;;;;;4.84;82.04;102821.53;146621;641;46012;-74
2023/02/10 15:05:25;;;;;;;;;84.33;66.67;;;;;4.82;81.79;102823.03;146623;668;46020;-73
2023/02/10 15:08:25;;;;;;;;;77.00;60.33;;;;;4.81;82.20;102823.78;146624;606;46910;-75
2023/02/10 15:15:22;;;;;;;;;81.00;64.33;;;;;4.22;81.75;102719.69;146626;579;46017;-76
2023/02/10 15:18:46;;;;;;;;;81.00;67.00;;;;;4.78;81.90;102827.69;146633;564;46010;-74
2023/02/10 15:22:04;;;;;;;;;86.33;66.00;;;;;4.76;82.05;102824.03;146624;630;48012;-75
2023/02/10 15:25:25;;;;;;;;;77.33;59.67;;;;;4.75;82.13;102825.69;146627;637;46020;-74
2023/02/10 15:28:37;;;;;;;;;72.50;55.00;;;;;4.71;81.62;102828.69;146619;696;46014;-74
2023/02/10 15:31:45;;;;;;;;;73.25;56.25;;;;;4.62;81.92;102823.44;146624;576;46010;-75
2023/02/10 15:34:53;;;;;;;;;63.50;49.75;;;;;4.47;82.26;102814.06;146620;624;46012;-75
2023/02/10 15:38:14;;;;;;;;;65.75;51.00;;;;;4.47;82.02;102837.19;146623;603;46011;-75